sensor_id;sensor_type;location;lat;lon;timestamp;P1;durP1;ratioP1;P2;durP2;ratioP2
75932;SDS011;64803;52.356;5.310;2023-07-02T00:01:53;13.77;;;3.22;;
75932;SDS011;64803;52.356;5.310;2023-07-02T00:04:19;8.32;;;2.85;;
75932;SDS011;64803;52.356;5.310;2023-07-02T00:06:46;11.55;;;3.55;;
75932;SDS011;64803;52.356;5.310;2023-07-02T00:11:40;10.40;;;3.25;;
75932;SDS011;64803;52.356;5.310;2023-07-02T00:14:09;12.45;;;3.28;;
75932;SDS011;64803;52.356;5.310;2023-07-02T00:16:37;12.35;;;3.60;;
75932;SDS011;64803;52.356;5.310;2023-07-02T00:19:04;13.85;;;3.20;;
75932;SDS011;64803;52.356;5.310;2023-07-02T00:21:30;16.13;;;3.47;;
75932;SDS011;64803;52.356;5.310;2023-07-02T00:23:59;14.60;;;3.33;;
75932;SDS011;64803;52.356;5.310;2023-07-02T00:26:26;13.88;;;3.80;;
75932;SDS011;64803;52.356;5.310;2023-07-02T00:28:53;11.45;;;3.67;;
75932;SDS011;64803;52.356;5.310;2023-07-02T00:33:46;13.88;;;3.55;;
75932;SDS011;64803;52.356;5.310;2023-07-02T00:36:13;15.48;;;3.38;;
75932;SDS011;64803;52.356;5.310;2023-07-02T00:38:44;10.30;;;2.83;;
75932;SDS011;64803;52.356;5.310;2023-07-02T00:41:12;18.95;;;3.10;;
75932;SDS011;64803;52.356;5.310;2023-07-02T00:43:38;16.15;;;3.85;;
75932;SDS011;64803;52.356;5.310;2023-07-02T00:48:43;13.90;;;3.90;;
75932;SDS011;64803;52.356;5.310;2023-07-02T00:51:11;18.42;;;3.70;;
75932;SDS011;64803;52.356;5.310;2023-07-02T00:53:47;15.25;;;4.00;;
75932;SDS011;64803;52.356;5.310;2023-07-02T00:56:15;20.88;;;4.95;;
75932;SDS011;64803;52.356;5.310;2023-07-02T00:58:41;16.10;;;4.45;;
75932;SDS011;64803;52.356;5.310;2023-07-02T01:01:17;21.25;;;4.82;;
75932;SDS011;64803;52.356;5.310;2023-07-02T01:06:22;16.15;;;4.10;;
75932;SDS011;64803;52.356;5.310;2023-07-02T01:08:54;16.25;;;3.38;;
75932;SDS011;64803;52.356;5.310;2023-07-02T01:11:23;16.77;;;4.03;;
75932;SDS011;64803;52.356;5.310;2023-07-02T01:13:53;11.40;;;4.03;;
75932;SDS011;64803;52.356;5.310;2023-07-02T01:16:23;10.30;;;2.97;;
75932;SDS011;64803;52.356;5.310;2023-07-02T01:18:49;22.08;;;4.80;;
75932;SDS011;64803;52.356;5.310;2023-07-02T01:21:20;17.05;;;4.25;;
75932;SDS011;64803;52.356;5.310;2023-07-02T01:23:49;15.88;;;4.60;;
75932;SDS011;64803;52.356;5.310;2023-07-02T01:26:15;18.00;;;4.60;;
75932;SDS011;64803;52.356;5.310;2023-07-02T01:28:41;19.98;;;4.68;;
75932;SDS011;64803;52.356;5.310;2023-07-02T01:31:07;16.50;;;4.53;;
75932;SDS011;64803;52.356;5.310;2023-07-02T01:33:33;20.00;;;3.92;;
75932;SDS011;64803;52.356;5.310;2023-07-02T01:35:59;11.23;;;3.47;;
75932;SDS011;64803;52.356;5.310;2023-07-02T01:38:25;15.55;;;4.90;;
75932;SDS011;64803;52.356;5.310;2023-07-02T01:40:52;17.88;;;4.93;;
75932;SDS011;64803;52.356;5.310;2023-07-02T01:43:19;21.52;;;4.63;;
75932;SDS011;64803;52.356;5.310;2023-07-02T01:45:45;17.10;;;5.05;;
75932;SDS011;64803;52.356;5.310;2023-07-02T01:48:11;15.82;;;4.10;;
75932;SDS011;64803;52.356;5.310;2023-07-02T01:50:37;18.85;;;5.40;;
75932;SDS011;64803;52.356;5.310;2023-07-02T01:53:03;19.90;;;4.50;;
75932;SDS011;64803;52.356;5.310;2023-07-02T01:55:29;21.63;;;4.50;;
75932;SDS011;64803;52.356;5.310;2023-07-02T01:57:55;19.60;;;4.80;;
75932;SDS011;64803;52.356;5.310;2023-07-02T02:00:21;21.63;;;5.60;;
75932;SDS011;64803;52.356;5.310;2023-07-02T02:02:47;21.67;;;5.57;;
75932;SDS011;64803;52.356;5.310;2023-07-02T02:05:13;17.98;;;5.13;;
75932;SDS011;64803;52.356;5.310;2023-07-02T02:07:39;22.02;;;5.05;;
75932;SDS011;64803;52.356;5.310;2023-07-02T02:10:06;17.95;;;4.35;;
75932;SDS011;64803;52.356;5.310;2023-07-02T02:12:33;20.05;;;4.13;;
75932;SDS011;64803;52.356;5.310;2023-07-02T02:14:59;17.02;;;4.22;;
75932;SDS011;64803;52.356;5.310;2023-07-02T02:17:25;20.92;;;3.55;;
75932;SDS011;64803;52.356;5.310;2023-07-02T02:19:51;19.55;;;4.75;;
75932;SDS011;64803;52.356;5.310;2023-07-02T02:22:17;22.50;;;4.68;;
75932;SDS011;64803;52.356;5.310;2023-07-02T02:24:43;18.17;;;3.70;;
75932;SDS011;64803;52.356;5.310;2023-07-02T02:27:09;29.35;;;5.10;;
75932;SDS011;64803;52.356;5.310;2023-07-02T02:29:35;15.20;;;3.80;;
75932;SDS011;64803;52.356;5.310;2023-07-02T02:32:02;21.30;;;4.50;;
75932;SDS011;64803;52.356;5.310;2023-07-02T02:34:28;21.08;;;4.63;;
75932;SDS011;64803;52.356;5.310;2023-07-02T02:36:55;15.55;;;4.32;;
75932;SDS011;64803;52.356;5.310;2023-07-02T02:39:22;18.85;;;5.75;;
75932;SDS011;64803;52.356;5.310;2023-07-02T02:41:48;20.52;;;4.50;;
75932;SDS011;64803;52.356;5.310;2023-07-02T02:44:18;19.35;;;4.50;;
75932;SDS011;64803;52.356;5.310;2023-07-02T02:46:45;20.88;;;4.47;;
75932;SDS011;64803;52.356;5.310;2023-07-02T02:49:11;22.75;;;5.13;;
75932;SDS011;64803;52.356;5.310;2023-07-02T02:51:37;16.08;;;4.63;;
75932;SDS011;64803;52.356;5.310;2023-07-02T02:54:03;22.58;;;4.45;;
75932;SDS011;64803;52.356;5.310;2023-07-02T02:56:29;20.33;;;4.28;;
75932;SDS011;64803;52.356;5.310;2023-07-02T02:58:55;20.60;;;4.90;;
75932;SDS011;64803;52.356;5.310;2023-07-02T03:01:21;18.65;;;4.68;;
75932;SDS011;64803;52.356;5.310;2023-07-02T03:03:47;20.85;;;5.15;;
75932;SDS011;64803;52.356;5.310;2023-07-02T03:06:14;21.55;;;4.68;;
75932;SDS011;64803;52.356;5.310;2023-07-02T03:08:40;16.35;;;4.75;;
75932;SDS011;64803;52.356;5.310;2023-07-02T03:11:06;17.33;;;4.70;;
75932;SDS011;64803;52.356;5.310;2023-07-02T03:13:32;18.02;;;5.35;;
75932;SDS011;64803;52.356;5.310;2023-07-02T03:15:58;17.80;;;4.18;;
75932;SDS011;64803;52.356;5.310;2023-07-02T03:18:24;12.38;;;3.55;;
75932;SDS011;64803;52.356;5.310;2023-07-02T03:20:50;14.70;;;3.92;;
75932;SDS011;64803;52.356;5.310;2023-07-02T03:23:16;21.45;;;4.80;;
75932;SDS011;64803;52.356;5.310;2023-07-02T03:25:42;20.48;;;5.43;;
75932;SDS011;64803;52.356;5.310;2023-07-02T03:28:08;22.98;;;5.18;;
75932;SDS011;64803;52.356;5.310;2023-07-02T03:30:35;22.17;;;4.93;;
75932;SDS011;64803;52.356;5.310;2023-07-02T03:33:01;20.25;;;4.43;;
75932;SDS011;64803;52.356;5.310;2023-07-02T03:35:27;24.00;;;4.70;;
75932;SDS011;64803;52.356;5.310;2023-07-02T03:37:53;23.02;;;4.85;;
75932;SDS011;64803;52.356;5.310;2023-07-02T03:40:19;18.63;;;5.25;;
75932;SDS011;64803;52.356;5.310;2023-07-02T03:42:45;21.55;;;5.95;;
75932;SDS011;64803;52.356;5.310;2023-07-02T03:45:11;19.55;;;4.82;;
75932;SDS011;64803;52.356;5.310;2023-07-02T03:47:37;18.70;;;5.35;;
75932;SDS011;64803;52.356;5.310;2023-07-02T03:50:03;25.05;;;5.65;;
75932;SDS011;64803;52.356;5.310;2023-07-02T03:52:29;25.55;;;5.25;;
75932;SDS011;64803;52.356;5.310;2023-07-02T03:54:55;13.15;;;3.53;;
75932;SDS011;64803;52.356;5.310;2023-07-02T03:57:21;15.52;;;4.35;;
75932;SDS011;64803;52.356;5.310;2023-07-02T03:59:47;21.27;;;4.30;;
75932;SDS011;64803;52.356;5.310;2023-07-02T04:02:13;23.33;;;5.07;;
75932;SDS011;64803;52.356;5.310;2023-07-02T04:04:39;14.57;;;3.83;;
75932;SDS011;64803;52.356;5.310;2023-07-02T04:07:05;19.92;;;5.80;;
75932;SDS011;64803;52.356;5.310;2023-07-02T04:09:32;21.70;;;5.57;;
75932;SDS011;64803;52.356;5.310;2023-07-02T04:11:59;23.13;;;5.90;;
75932;SDS011;64803;52.356;5.310;2023-07-02T04:14:26;16.35;;;4.68;;
75932;SDS011;64803;52.356;5.310;2023-07-02T04:16:53;19.05;;;4.85;;
75932;SDS011;64803;52.356;5.310;2023-07-02T04:19:19;23.50;;;4.75;;
75932;SDS011;64803;52.356;5.310;2023-07-02T04:21:45;20.58;;;4.82;;
75932;SDS011;64803;52.356;5.310;2023-07-02T04:24:11;14.80;;;4.38;;
75932;SDS011;64803;52.356;5.310;2023-07-02T04:26:37;22.70;;;4.90;;
75932;SDS011;64803;52.356;5.310;2023-07-02T04:29:03;19.90;;;5.25;;
75932;SDS011;64803;52.356;5.310;2023-07-02T04:31:29;12.13;;;3.90;;
75932;SDS011;64803;52.356;5.310;2023-07-02T04:33:55;20.05;;;3.97;;
75932;SDS011;64803;52.356;5.310;2023-07-02T04:38:48;18.52;;;4.80;;
75932;SDS011;64803;52.356;5.310;2023-07-02T04:41:14;19.75;;;4.78;;
75932;SDS011;64803;52.356;5.310;2023-07-02T04:43:40;20.05;;;3.95;;
75932;SDS011;64803;52.356;5.310;2023-07-02T04:46:06;15.93;;;4.18;;
75932;SDS011;64803;52.356;5.310;2023-07-02T04:48:33;14.38;;;3.72;;
75932;SDS011;64803;52.356;5.310;2023-07-02T04:50:59;20.52;;;4.57;;
75932;SDS011;64803;52.356;5.310;2023-07-02T04:53:25;23.50;;;4.60;;
75932;SDS011;64803;52.356;5.310;2023-07-02T04:55:51;22.15;;;5.15;;
75932;SDS011;64803;52.356;5.310;2023-07-02T04:58:17;20.45;;;4.80;;
75932;SDS011;64803;52.356;5.310;2023-07-02T05:00:43;21.27;;;5.28;;
75932;SDS011;64803;52.356;5.310;2023-07-02T05:03:09;19.05;;;4.35;;
75932;SDS011;64803;52.356;5.310;2023-07-02T05:05:35;21.77;;;4.65;;
75932;SDS011;64803;52.356;5.310;2023-07-02T05:08:01;17.60;;;4.07;;
75932;SDS011;64803;52.356;5.310;2023-07-02T05:10:30;17.05;;;4.60;;
75932;SDS011;64803;52.356;5.310;2023-07-02T05:12:56;14.68;;;3.38;;
75932;SDS011;64803;52.356;5.310;2023-07-02T05:15:23;17.38;;;3.35;;
75932;SDS011;64803;52.356;5.310;2023-07-02T05:17:49;21.42;;;3.75;;
75932;SDS011;64803;52.356;5.310;2023-07-02T05:20:15;18.27;;;4.65;;
75932;SDS011;64803;52.356;5.310;2023-07-02T05:22:41;17.60;;;4.35;;
75932;SDS011;64803;52.356;5.310;2023-07-02T05:25:07;15.75;;;4.07;;
75932;SDS011;64803;52.356;5.310;2023-07-02T05:27:34;16.42;;;4.07;;
75932;SDS011;64803;52.356;5.310;2023-07-02T05:30:00;19.35;;;3.72;;
75932;SDS011;64803;52.356;5.310;2023-07-02T05:32:26;17.85;;;4.25;;
75932;SDS011;64803;52.356;5.310;2023-07-02T05:34:52;15.23;;;4.07;;
75932;SDS011;64803;52.356;5.310;2023-07-02T05:37:18;15.73;;;3.33;;
75932;SDS011;64803;52.356;5.310;2023-07-02T05:39:44;10.25;;;3.25;;
75932;SDS011;64803;52.356;5.310;2023-07-02T05:42:10;10.77;;;2.55;;
75932;SDS011;64803;52.356;5.310;2023-07-02T05:44:36;15.63;;;3.47;;
75932;SDS011;64803;52.356;5.310;2023-07-02T05:47:02;14.48;;;3.72;;
75932;SDS011;64803;52.356;5.310;2023-07-02T05:49:28;10.93;;;3.05;;
75932;SDS011;64803;52.356;5.310;2023-07-02T05:51:54;14.00;;;4.28;;
75932;SDS011;64803;52.356;5.310;2023-07-02T05:54:20;17.20;;;3.65;;
75932;SDS011;64803;52.356;5.310;2023-07-02T05:56:46;18.25;;;3.95;;
75932;SDS011;64803;52.356;5.310;2023-07-02T05:59:12;9.60;;;3.33;;
75932;SDS011;64803;52.356;5.310;2023-07-02T06:01:40;12.43;;;3.10;;
75932;SDS011;64803;52.356;5.310;2023-07-02T06:04:06;18.45;;;3.47;;
75932;SDS011;64803;52.356;5.310;2023-07-02T06:06:32;13.68;;;2.97;;
75932;SDS011;64803;52.356;5.310;2023-07-02T06:08:58;16.02;;;3.63;;
75932;SDS011;64803;52.356;5.310;2023-07-02T06:11:24;12.35;;;3.05;;
75932;SDS011;64803;52.356;5.310;2023-07-02T06:13:50;10.18;;;3.20;;
75932;SDS011;64803;52.356;5.310;2023-07-02T06:16:16;17.00;;;4.78;;
75932;SDS011;64803;52.356;5.310;2023-07-02T06:18:42;14.73;;;3.95;;
75932;SDS011;64803;52.356;5.310;2023-07-02T06:21:08;16.35;;;3.95;;
75932;SDS011;64803;52.356;5.310;2023-07-02T06:23:43;14.45;;;3.20;;
75932;SDS011;64803;52.356;5.310;2023-07-02T06:26:10;13.77;;;3.47;;
75932;SDS011;64803;52.356;5.310;2023-07-02T06:28:36;13.25;;;2.90;;
75932;SDS011;64803;52.356;5.310;2023-07-02T06:31:02;15.68;;;3.60;;
75932;SDS011;64803;52.356;5.310;2023-07-02T06:33:28;10.60;;;3.22;;
75932;SDS011;64803;52.356;5.310;2023-07-02T06:35:54;11.45;;;3.15;;
75932;SDS011;64803;52.356;5.310;2023-07-02T06:38:20;11.70;;;4.22;;
75932;SDS011;64803;52.356;5.310;2023-07-02T06:40:46;11.35;;;2.38;;
75932;SDS011;64803;52.356;5.310;2023-07-02T06:43:12;13.07;;;3.60;;
75932;SDS011;64803;52.356;5.310;2023-07-02T06:45:39;24.90;;;4.40;;
75932;SDS011;64803;52.356;5.310;2023-07-02T06:48:05;8.88;;;2.88;;
75932;SDS011;64803;52.356;5.310;2023-07-02T06:50:31;11.90;;;3.22;;
75932;SDS011;64803;52.356;5.310;2023-07-02T06:52:57;7.45;;;1.58;;
75932;SDS011;64803;52.356;5.310;2023-07-02T06:55:23;8.57;;;2.55;;
75932;SDS011;64803;52.356;5.310;2023-07-02T06:57:49;17.25;;;3.22;;
75932;SDS011;64803;52.356;5.310;2023-07-02T07:00:15;8.95;;;2.50;;
75932;SDS011;64803;52.356;5.310;2023-07-02T07:02:41;15.45;;;3.83;;
75932;SDS011;64803;52.356;5.310;2023-07-02T07:05:08;15.48;;;3.42;;
75932;SDS011;64803;52.356;5.310;2023-07-02T07:07:35;10.38;;;2.53;;
75932;SDS011;64803;52.356;5.310;2023-07-02T07:10:01;10.57;;;2.58;;
75932;SDS011;64803;52.356;5.310;2023-07-02T07:12:27;9.75;;;2.78;;
75932;SDS011;64803;52.356;5.310;2023-07-02T07:14:53;13.40;;;2.83;;
75932;SDS011;64803;52.356;5.310;2023-07-02T07:17:19;11.65;;;3.05;;
75932;SDS011;64803;52.356;5.310;2023-07-02T07:19:45;10.55;;;2.92;;
75932;SDS011;64803;52.356;5.310;2023-07-02T07:22:11;14.75;;;3.08;;
75932;SDS011;64803;52.356;5.310;2023-07-02T07:24:37;11.38;;;3.75;;
75932;SDS011;64803;52.356;5.310;2023-07-02T07:27:03;12.32;;;2.60;;
75932;SDS011;64803;52.356;5.310;2023-07-02T07:29:29;10.90;;;2.30;;
75932;SDS011;64803;52.356;5.310;2023-07-02T07:31:55;14.57;;;2.88;;
75932;SDS011;64803;52.356;5.310;2023-07-02T07:34:21;8.75;;;2.22;;
75932;SDS011;64803;52.356;5.310;2023-07-02T07:36:47;12.50;;;3.40;;
75932;SDS011;64803;52.356;5.310;2023-07-02T07:39:14;11.57;;;2.78;;
75932;SDS011;64803;52.356;5.310;2023-07-02T07:41:40;17.15;;;2.95;;
75932;SDS011;64803;52.356;5.310;2023-07-02T07:44:06;17.17;;;3.38;;
75932;SDS011;64803;52.356;5.310;2023-07-02T07:46:32;15.63;;;2.80;;
75932;SDS011;64803;52.356;5.310;2023-07-02T07:48:58;11.38;;;3.03;;
75932;SDS011;64803;52.356;5.310;2023-07-02T07:51:24;11.05;;;2.60;;
75932;SDS011;64803;52.356;5.310;2023-07-02T07:53:50;15.45;;;3.55;;
75932;SDS011;64803;52.356;5.310;2023-07-02T07:56:16;10.00;;;3.10;;
75932;SDS011;64803;52.356;5.310;2023-07-02T07:58:42;13.02;;;2.90;;
75932;SDS011;64803;52.356;5.310;2023-07-02T08:01:08;8.98;;;2.67;;
75932;SDS011;64803;52.356;5.310;2023-07-02T08:03:36;10.80;;;2.63;;
75932;SDS011;64803;52.356;5.310;2023-07-02T08:06:03;15.77;;;2.70;;
75932;SDS011;64803;52.356;5.310;2023-07-02T08:08:29;9.43;;;2.47;;
75932;SDS011;64803;52.356;5.310;2023-07-02T08:10:55;14.48;;;3.53;;
75932;SDS011;64803;52.356;5.310;2023-07-02T08:13:21;16.02;;;4.28;;
75932;SDS011;64803;52.356;5.310;2023-07-02T08:15:47;13.98;;;3.60;;
75932;SDS011;64803;52.356;5.310;2023-07-02T08:18:13;15.40;;;3.47;;
75932;SDS011;64803;52.356;5.310;2023-07-02T08:20:39;10.23;;;3.25;;
75932;SDS011;64803;52.356;5.310;2023-07-02T08:23:05;13.15;;;3.83;;
75932;SDS011;64803;52.356;5.310;2023-07-02T08:25:31;10.00;;;3.22;;
75932;SDS011;64803;52.356;5.310;2023-07-02T08:27:58;12.95;;;2.83;;
75932;SDS011;64803;52.356;5.310;2023-07-02T08:30:24;14.40;;;3.33;;
75932;SDS011;64803;52.356;5.310;2023-07-02T08:32:49;13.15;;;3.22;;
75932;SDS011;64803;52.356;5.310;2023-07-02T08:35:15;10.82;;;2.85;;
75932;SDS011;64803;52.356;5.310;2023-07-02T08:37:41;10.35;;;3.72;;
75932;SDS011;64803;52.356;5.310;2023-07-02T08:40:15;16.33;;;3.55;;
75932;SDS011;64803;52.356;5.310;2023-07-02T08:42:42;13.18;;;2.92;;
75932;SDS011;64803;52.356;5.310;2023-07-02T08:45:08;9.63;;;2.85;;
75932;SDS011;64803;52.356;5.310;2023-07-02T08:47:36;17.67;;;3.60;;
75932;SDS011;64803;52.356;5.310;2023-07-02T08:50:02;7.82;;;2.40;;
75932;SDS011;64803;52.356;5.310;2023-07-02T08:52:29;15.02;;;4.05;;
75932;SDS011;64803;52.356;5.310;2023-07-02T08:54:55;12.93;;;2.55;;
75932;SDS011;64803;52.356;5.310;2023-07-02T08:57:21;10.63;;;2.75;;
75932;SDS011;64803;52.356;5.310;2023-07-02T08:59:47;12.13;;;2.88;;
75932;SDS011;64803;52.356;5.310;2023-07-02T09:04:41;6.97;;;2.55;;
75932;SDS011;64803;52.356;5.310;2023-07-02T09:07:07;7.00;;;2.10;;
75932;SDS011;64803;52.356;5.310;2023-07-02T09:09:44;8.60;;;2.55;;
75932;SDS011;64803;52.356;5.310;2023-07-02T09:12:30;13.95;;;2.78;;
75932;SDS011;64803;52.356;5.310;2023-07-02T09:15:01;6.88;;;2.47;;
75932;SDS011;64803;52.356;5.310;2023-07-02T09:17:32;9.52;;;2.72;;
75932;SDS011;64803;52.356;5.310;2023-07-02T09:20:00;9.80;;;2.42;;
75932;SDS011;64803;52.356;5.310;2023-07-02T09:22:27;7.97;;;2.50;;
75932;SDS011;64803;52.356;5.310;2023-07-02T09:24:55;7.47;;;2.60;;
75932;SDS011;64803;52.356;5.310;2023-07-02T09:27:37;12.27;;;2.67;;
75932;SDS011;64803;52.356;5.310;2023-07-02T09:30:14;11.90;;;3.00;;
75932;SDS011;64803;52.356;5.310;2023-07-02T09:32:42;8.68;;;2.38;;
75932;SDS011;64803;52.356;5.310;2023-07-02T09:35:10;13.13;;;2.53;;
75932;SDS011;64803;52.356;5.310;2023-07-02T09:37:36;10.48;;;2.53;;
75932;SDS011;64803;52.356;5.310;2023-07-02T09:40:04;10.95;;;2.83;;
75932;SDS011;64803;52.356;5.310;2023-07-02T09:42:32;7.82;;;2.03;;
75932;SDS011;64803;52.356;5.310;2023-07-02T09:45:00;8.90;;;2.63;;
75932;SDS011;64803;52.356;5.310;2023-07-02T09:47:27;8.85;;;2.03;;
75932;SDS011;64803;52.356;5.310;2023-07-02T09:49:58;15.80;;;2.65;;
75932;SDS011;64803;52.356;5.310;2023-07-02T09:52:27;13.45;;;3.00;;
75932;SDS011;64803;52.356;5.310;2023-07-02T09:54:54;11.38;;;3.13;;
75932;SDS011;64803;52.356;5.310;2023-07-02T09:57:20;17.15;;;2.40;;
75932;SDS011;64803;52.356;5.310;2023-07-02T09:59:46;10.13;;;2.65;;
75932;SDS011;64803;52.356;5.310;2023-07-02T10:02:12;10.45;;;2.47;;
75932;SDS011;64803;52.356;5.310;2023-07-02T10:04:46;11.95;;;2.95;;
75932;SDS011;64803;52.356;5.310;2023-07-02T10:07:25;9.93;;;2.45;;
75932;SDS011;64803;52.356;5.310;2023-07-02T10:09:53;12.52;;;2.75;;
75932;SDS011;64803;52.356;5.310;2023-07-02T10:12:20;9.77;;;2.50;;
75932;SDS011;64803;52.356;5.310;2023-07-02T10:14:53;10.93;;;2.60;;
75932;SDS011;64803;52.356;5.310;2023-07-02T10:17:24;9.55;;;2.42;;
75932;SDS011;64803;52.356;5.310;2023-07-02T10:19:55;9.45;;;2.38;;
75932;SDS011;64803;52.356;5.310;2023-07-02T10:22:22;7.07;;;2.00;;
75932;SDS011;64803;52.356;5.310;2023-07-02T10:24:52;5.93;;;1.80;;
75932;SDS011;64803;52.356;5.310;2023-07-02T10:27:38;5.97;;;2.17;;
75932;SDS011;64803;52.356;5.310;2023-07-02T10:30:08;8.73;;;1.48;;
75932;SDS011;64803;52.356;5.310;2023-07-02T10:32:36;6.90;;;1.70;;
75932;SDS011;64803;52.356;5.310;2023-07-02T10:35:21;9.18;;;2.20;;
75932;SDS011;64803;52.356;5.310;2023-07-02T10:37:47;4.47;;;1.42;;
75932;SDS011;64803;52.356;5.310;2023-07-02T10:40:13;10.07;;;2.00;;
75932;SDS011;64803;52.356;5.310;2023-07-02T10:42:50;9.02;;;2.00;;
75932;SDS011;64803;52.356;5.310;2023-07-02T10:45:17;8.75;;;1.95;;
75932;SDS011;64803;52.356;5.310;2023-07-02T10:47:43;7.65;;;2.00;;
75932;SDS011;64803;52.356;5.310;2023-07-02T10:52:42;9.18;;;2.70;;
75932;SDS011;64803;52.356;5.310;2023-07-02T10:55:08;7.70;;;1.60;;
75932;SDS011;64803;52.356;5.310;2023-07-02T10:57:35;6.93;;;1.88;;
75932;SDS011;64803;52.356;5.310;2023-07-02T11:00:05;9.98;;;2.17;;
75932;SDS011;64803;52.356;5.310;2023-07-02T11:02:36;5.75;;;2.00;;
75932;SDS011;64803;52.356;5.310;2023-07-02T11:05:04;8.55;;;1.83;;
75932;SDS011;64803;52.356;5.310;2023-07-02T11:07:32;10.80;;;2.30;;
75932;SDS011;64803;52.356;5.310;2023-07-02T11:09:58;11.35;;;2.47;;
75932;SDS011;64803;52.356;5.310;2023-07-02T11:12:28;10.45;;;3.20;;
75932;SDS011;64803;52.356;5.310;2023-07-02T11:14:55;8.40;;;2.17;;
75932;SDS011;64803;52.356;5.310;2023-07-02T11:17:43;16.65;;;3.13;;
75932;SDS011;64803;52.356;5.310;2023-07-02T11:20:09;8.25;;;2.50;;
75932;SDS011;64803;52.356;5.310;2023-07-02T11:22:37;12.43;;;2.53;;
75932;SDS011;64803;52.356;5.310;2023-07-02T11:25:16;6.80;;;2.25;;
75932;SDS011;64803;52.356;5.310;2023-07-02T11:27:44;7.20;;;2.17;;
75932;SDS011;64803;52.356;5.310;2023-07-02T11:30:10;8.82;;;2.88;;
75932;SDS011;64803;52.356;5.310;2023-07-02T11:32:47;11.73;;;3.38;;
75932;SDS011;64803;52.356;5.310;2023-07-02T11:35:19;6.40;;;1.95;;
75932;SDS011;64803;52.356;5.310;2023-07-02T11:37:45;8.45;;;2.17;;
75932;SDS011;64803;52.356;5.310;2023-07-02T11:40:12;12.60;;;2.50;;
75932;SDS011;64803;52.356;5.310;2023-07-02T11:42:39;5.30;;;1.90;;
75932;SDS011;64803;52.356;5.310;2023-07-02T11:45:05;10.18;;;2.83;;
75932;SDS011;64803;52.356;5.310;2023-07-02T11:47:32;10.18;;;2.58;;
75932;SDS011;64803;52.356;5.310;2023-07-02T11:49:58;8.75;;;2.47;;
75932;SDS011;64803;52.356;5.310;2023-07-02T11:52:27;6.53;;;2.10;;
75932;SDS011;64803;52.356;5.310;2023-07-02T11:54:53;11.20;;;2.80;;
75932;SDS011;64803;52.356;5.310;2023-07-02T11:57:19;10.52;;;2.15;;
75932;SDS011;64803;52.356;5.310;2023-07-02T11:59:45;19.00;;;2.92;;
75932;SDS011;64803;52.356;5.310;2023-07-02T12:02:11;6.07;;;2.28;;
75932;SDS011;64803;52.356;5.310;2023-07-02T12:04:38;9.00;;;2.50;;
75932;SDS011;64803;52.356;5.310;2023-07-02T12:07:04;8.25;;;2.20;;
75932;SDS011;64803;52.356;5.310;2023-07-02T12:09:30;7.28;;;2.40;;
75932;SDS011;64803;52.356;5.310;2023-07-02T12:11:56;6.55;;;1.98;;
75932;SDS011;64803;52.356;5.310;2023-07-02T12:14:22;12.60;;;2.45;;
75932;SDS011;64803;52.356;5.310;2023-07-02T12:16:48;10.40;;;2.22;;
75932;SDS011;64803;52.356;5.310;2023-07-02T12:19:14;11.40;;;2.10;;
75932;SDS011;64803;52.356;5.310;2023-07-02T12:21:40;6.45;;;2.30;;
75932;SDS011;64803;52.356;5.310;2023-07-02T12:24:06;8.57;;;2.70;;
75932;SDS011;64803;52.356;5.310;2023-07-02T12:26:35;9.95;;;2.25;;
75932;SDS011;64803;52.356;5.310;2023-07-02T12:29:02;9.93;;;2.60;;
75932;SDS011;64803;52.356;5.310;2023-07-02T12:31:28;8.15;;;2.10;;
75932;SDS011;64803;52.356;5.310;2023-07-02T12:33:54;7.38;;;2.08;;
75932;SDS011;64803;52.356;5.310;2023-07-02T12:36:20;9.80;;;2.78;;
75932;SDS011;64803;52.356;5.310;2023-07-02T12:38:46;7.60;;;1.98;;
75932;SDS011;64803;52.356;5.310;2023-07-02T12:41:12;12.23;;;2.42;;
75932;SDS011;64803;52.356;5.310;2023-07-02T12:43:38;6.88;;;2.03;;
75932;SDS011;64803;52.356;5.310;2023-07-02T12:46:04;16.30;;;3.20;;
75932;SDS011;64803;52.356;5.310;2023-07-02T12:48:30;12.18;;;2.50;;
75932;SDS011;64803;52.356;5.310;2023-07-02T12:50:56;5.38;;;1.55;;
75932;SDS011;64803;52.356;5.310;2023-07-02T12:53:23;11.90;;;2.38;;
75932;SDS011;64803;52.356;5.310;2023-07-02T12:55:51;8.27;;;2.20;;
75932;SDS011;64803;52.356;5.310;2023-07-02T12:58:17;11.55;;;1.95;;
75932;SDS011;64803;52.356;5.310;2023-07-02T13:00:43;5.78;;;2.00;;
75932;SDS011;64803;52.356;5.310;2023-07-02T13:03:10;8.80;;;2.38;;
75932;SDS011;64803;52.356;5.310;2023-07-02T13:05:38;6.22;;;1.80;;
75932;SDS011;64803;52.356;5.310;2023-07-02T13:08:04;6.72;;;2.33;;
75932;SDS011;64803;52.356;5.310;2023-07-02T13:10:31;10.88;;;2.55;;
75932;SDS011;64803;52.356;5.310;2023-07-02T13:12:58;10.82;;;3.17;;
75932;SDS011;64803;52.356;5.310;2023-07-02T13:15:25;7.90;;;2.10;;
75932;SDS011;64803;52.356;5.310;2023-07-02T13:17:51;12.77;;;3.30;;
75932;SDS011;64803;52.356;5.310;2023-07-02T13:20:17;8.45;;;2.00;;
75932;SDS011;64803;52.356;5.310;2023-07-02T13:22:43;8.73;;;2.50;;
75932;SDS011;64803;52.356;5.310;2023-07-02T13:25:09;11.55;;;3.13;;
75932;SDS011;64803;52.356;5.310;2023-07-02T13:27:35;10.25;;;3.05;;
75932;SDS011;64803;52.356;5.310;2023-07-02T13:30:01;6.72;;;1.95;;
75932;SDS011;64803;52.356;5.310;2023-07-02T13:32:28;10.55;;;2.85;;
75932;SDS011;64803;52.356;5.310;2023-07-02T13:34:54;11.88;;;2.95;;
75932;SDS011;64803;52.356;5.310;2023-07-02T13:37:20;10.60;;;3.25;;
75932;SDS011;64803;52.356;5.310;2023-07-02T13:39:46;9.80;;;2.50;;
75932;SDS011;64803;52.356;5.310;2023-07-02T13:42:13;10.20;;;2.20;;
75932;SDS011;64803;52.356;5.310;2023-07-02T13:44:40;7.93;;;2.90;;
75932;SDS011;64803;52.356;5.310;2023-07-02T13:47:06;8.93;;;2.50;;
75932;SDS011;64803;52.356;5.310;2023-07-02T13:49:32;6.05;;;1.85;;
75932;SDS011;64803;52.356;5.310;2023-07-02T13:51:59;7.07;;;2.38;;
75932;SDS011;64803;52.356;5.310;2023-07-02T13:54:25;6.80;;;2.00;;
75932;SDS011;64803;52.356;5.310;2023-07-02T13:56:52;13.18;;;2.72;;
75932;SDS011;64803;52.356;5.310;2023-07-02T13:59:19;14.68;;;3.88;;
75932;SDS011;64803;52.356;5.310;2023-07-02T14:01:45;7.95;;;2.50;;
75932;SDS011;64803;52.356;5.310;2023-07-02T14:04:13;8.60;;;2.35;;
75932;SDS011;64803;52.356;5.310;2023-07-02T14:06:39;6.18;;;2.08;;
75932;SDS011;64803;52.356;5.310;2023-07-02T14:09:06;11.93;;;3.17;;
75932;SDS011;64803;52.356;5.310;2023-07-02T14:11:34;6.82;;;2.47;;
75932;SDS011;64803;52.356;5.310;2023-07-02T14:14:01;9.63;;;2.95;;
75932;SDS011;64803;52.356;5.310;2023-07-02T14:16:27;11.50;;;3.13;;
75932;SDS011;64803;52.356;5.310;2023-07-02T14:18:53;9.25;;;3.00;;
75932;SDS011;64803;52.356;5.310;2023-07-02T14:21:19;6.95;;;2.63;;
75932;SDS011;64803;52.356;5.310;2023-07-02T14:23:45;7.47;;;2.75;;
75932;SDS011;64803;52.356;5.310;2023-07-02T14:26:11;10.23;;;2.92;;
75932;SDS011;64803;52.356;5.310;2023-07-02T14:28:38;9.65;;;2.72;;
75932;SDS011;64803;52.356;5.310;2023-07-02T14:31:04;15.73;;;3.42;;
75932;SDS011;64803;52.356;5.310;2023-07-02T14:33:32;13.63;;;2.97;;
75932;SDS011;64803;52.356;5.310;2023-07-02T14:36:01;7.32;;;2.40;;
75932;SDS011;64803;52.356;5.310;2023-07-02T14:38:28;8.93;;;2.10;;
75932;SDS011;64803;52.356;5.310;2023-07-02T14:40:55;8.43;;;2.33;;
75932;SDS011;64803;52.356;5.310;2023-07-02T14:43:23;6.50;;;2.08;;
75932;SDS011;64803;52.356;5.310;2023-07-02T14:45:57;16.60;;;2.67;;
75932;SDS011;64803;52.356;5.310;2023-07-02T14:48:25;9.52;;;2.75;;
75932;SDS011;64803;52.356;5.310;2023-07-02T14:50:52;12.75;;;2.95;;
75932;SDS011;64803;52.356;5.310;2023-07-02T14:53:25;9.75;;;2.97;;
75932;SDS011;64803;52.356;5.310;2023-07-02T14:55:54;10.27;;;2.67;;